Time;durP1;ratioP1;P1;durP2;ratioP2;P2;SDS_P1;SDS_P2;PMS_P1;PMS_P2;Temp;Humidity;BMP_temperature;BMP_pressure;BME280_temperature;BME280_humidity;BME280_pressure;Samples;Min_cycle;Max_cycle;Signal;HPM_P1;HPM_P2
2022/08/09 08:41:22;;;;;;;0.40;0.30;;;23.70;82.00;;;;;;5087683;27;20351;-73
2022/08/09 08:43:49;;;;;;;0.40;0.20;;;23.80;84.40;;;;;;5070943;28;20468;-74
2022/08/09 08:46:19;;;;;;;0.50;0.30;;;24.10;82.50;;;;;;5050174;22;20919;-72
2022/08/09 08:48:46;;;;;;;0.40;0.30;;;24.20;81.90;;;;;;5007982;28;20388;-73
2022/08/09 08:51:11;;;;;;;0.40;0.30;;;24.40;81.10;;;;;;5007974;28;20385;-73
2022/08/09 08:53:37;;;;;;;0.40;0.20;;;24.40;81.70;;;;;;5008207;28;20947;-73
2022/08/09 08:56:04;;;;;;;0.40;0.20;;;24.70;78.50;;;;;;5007389;28;20425;-73
2022/08/09 08:58:31;;;;;;;0.40;0.20;;;25.10;76.00;;;;;;5007048;28;20911;-76
2022/08/09 09:00:57;;;;;;;0.40;0.30;;;25.20;75.10;;;;;;5005760;28;20418;-77
2022/08/09 09:03:28;;;;;;;0.40;0.30;;;25.10;76.00;;;;;;5007712;28;20390;-76
2022/08/09 09:05:55;;;;;;;0.40;0.20;;;24.90;73.90;;;;;;5005198;28;20778;-76
2022/08/09 09:08:22;;;;;;;0.40;0.20;;;25.00;74.90;;;;;;5007930;28;20382;-76
2022/08/09 09:10:47;;;;;;;0.40;0.20;;;25.10;76.00;;;;;;5007868;28;20393;-76
2022/08/09 09:13:16;;;;;;;0.40;0.30;;;25.30;74.00;;;;;;5003914;28;20405;-76
2022/08/09 09:15:41;;;;;;;0.40;0.20;;;25.50;72.90;;;;;;5005278;28;20413;-79
2022/08/09 09:18:13;;;;;;;0.40;0.20;;;25.50;72.50;;;;;;5004608;28;20556;-76
2022/08/09 09:20:39;;;;;;;0.40;0.30;;;25.40;73.00;;;;;;5006364;28;20409;-76
2022/08/09 09:23:05;;;;;;;0.40;0.20;;;25.40;72.90;;;;;;5005054;28;20432;-76
2022/08/09 09:25:31;;;;;;;0.40;0.30;;;25.20;71.70;;;;;;5011382;28;20515;-75
2022/08/09 09:27:57;;;;;;;0.40;0.30;;;25.40;70.40;;;;;;5005274;28;20953;-78
2022/08/09 09:30:23;;;;;;;0.40;0.20;;;25.40;70.80;;;;;;5010497;28;20419;-78
2022/08/09 09:33:08;;;;;;;0.40;0.20;;;25.40;71.80;;;;;;5005844;28;20499;-77
2022/08/09 09:35:50;;;;;;;0.40;0.30;;;25.50;70.90;;;;;;5007927;28;20410;-78
2022/08/09 09:38:16;;;;;;;0.40;0.20;;;25.70;67.00;;;;;;5009124;28;20437;-78
2022/08/09 09:40:45;;;;;;;0.40;0.20;;;26.00;59.60;;;;;;5021455;28;20444;-78
2022/08/09 09:43:18;;;;;;;0.40;0.30;;;26.30;56.80;;;;;;5006346;28;20411;-76
2022/08/09 09:45:52;;;;;;;0.40;0.30;;;26.50;56.10;;;;;;4999612;28;20493;-77
2022/08/09 09:48:20;;;;;;;0.40;0.30;;;26.70;54.30;;;;;;5009560;28;20432;-80
2022/08/09 09:50:47;;;;;;;0.40;0.30;;;26.70;54.00;;;;;;5005707;28;20418;-77
2022/08/09 09:53:19;;;;;;;0.40;0.20;;;26.90;52.80;;;;;;4987619;28;20414;-77
2022/08/09 09:56:01;;;;;;;0.40;0.30;;;27.10;51.80;;;;;;4990241;28;20752;-78
2022/08/09 09:58:47;;;;;;;0.40;0.30;;;27.10;52.70;;;;;;4992623;28;20496;-77
2022/08/09 10:01:18;;;;;;;0.60;0.40;;;27.50;51.30;;;;;;4992440;28;20433;-77
2022/08/09 10:03:49;;;;;;;0.40;0.30;;;27.40;51.20;;;;;;4987614;28;20410;-76
2022/08/09 10:06:15;;;;;;;0.40;0.30;;;27.50;50.70;;;;;;4993004;28;20885;-77
2022/08/09 10:08:42;;;;;;;0.40;0.30;;;27.60;50.70;;;;;;4993873;28;20452;-77
2022/08/09 10:11:38;;;;;;;0.40;0.20;;;27.70;50.50;;;;;;4993695;28;20765;-77
2022/08/09 10:14:04;;;;;;;0.40;0.30;;;27.80;49.90;;;;;;4986782;28;20407;-76
2022/08/09 10:16:30;;;;;;;0.40;0.20;;;27.70;49.50;;;;;;4991268;28;21110;-77
2022/08/09 10:19:08;;;;;;;0.40;0.30;;;27.80;49.10;;;;;;4993259;28;20418;-77
2022/08/09 10:21:34;;;;;;;0.40;0.30;;;27.80;49.30;;;;;;4985392;28;20978;-77
2022/08/09 10:24:03;;;;;;;0.40;0.20;;;27.70;48.30;;;;;;4989115;28;20403;-77
2022/08/09 10:26:29;;;;;;;0.40;0.20;;;27.90;49.00;;;;;;4990185;28;20390;-78
2022/08/09 10:28:55;;;;;;;0.40;0.28;;;28.10;48.90;;;;;;4992740;28;20529;-78
2022/08/09 10:31:22;;;;;;;0.40;0.20;;;28.30;50.10;;;;;;4989992;28;20402;-77
2022/08/09 10:33:48;;;;;;;0.40;0.20;;;28.30;49.10;;;;;;4989989;28;20915;-74
2022/08/09 10:36:15;;;;;;;0.40;0.30;;;28.40;48.70;;;;;;4991297;28;20418;-73
2022/08/09 10:38:43;;;;;;;0.40;0.20;;;28.50;46.70;;;;;;4987205;28;20412;-73
2022/08/09 10:41:09;;;;;;;0.40;0.20;;;28.60;46.60;;;;;;4986302;28;20421;-73
2022/08/09 10:43:36;;;;;;;0.40;0.20;;;28.70;45.00;;;;;;4994419;28;20398;-74
2022/08/09 10:46:35;;;;;;;0.40;0.20;;;28.70;44.40;;;;;;5002527;28;20397;-74
2022/08/09 10:49:25;;;;;;;0.40;0.20;;;28.70;45.50;;;;;;4999377;28;20502;-74
2022/08/09 10:52:21;;;;;;;0.40;0.30;;;29.00;44.20;;;;;;5009238;28;20435;-74
2022/08/09 10:54:47;;;;;;;0.40;0.20;;;29.00;43.90;;;;;;5009680;28;20401;-73
2022/08/09 10:57:13;;;;;;;0.40;0.20;;;29.10;42.60;;;;;;4991758;28;20401;-73
2022/08/09 10:59:41;;;;;;;0.40;0.20;;;29.10;41.70;;;;;;5009788;28;20422;-73
2022/08/09 11:02:13;;;;;;;0.40;0.20;;;29.30;43.30;;;;;;5011284;28;20450;-73
2022/08/09 11:04:39;;;;;;;0.40;0.20;;;29.40;43.50;;;;;;5008827;28;20424;-74
2022/08/09 11:07:04;;;;;;;0.40;0.20;;;29.30;42.90;;;;;;5011905;28;20381;-74
2022/08/09 11:09:42;;;;;;;0.40;0.30;;;29.50;42.80;;;;;;5012109;28;20385;-74
2022/08/09 11:12:09;;;;;;;0.40;0.28;;;29.80;41.10;;;;;;5011687;28;20404;-74
2022/08/09 11:14:40;;;;;;;0.40;0.30;;;29.90;41.50;;;;;;5004191;28;20416;-75
2022/08/09 11:17:15;;;;;;;0.40;0.20;;;29.90;41.30;;;;;;5010462;28;20921;-75
2022/08/09 11:19:55;;;;;;;0.40;0.20;;;30.20;42.60;;;;;;5007381;28;20413;-75
2022/08/09 11:22:41;;;;;;;0.40;0.20;;;30.10;39.60;;;;;;4996373;28;20396;-74
2022/08/09 11:25:08;;;;;;;0.40;0.20;;;30.30;40.80;;;;;;5008735;28;20577;-73
2022/08/09 11:27:38;;;;;;;0.40;0.20;;;30.30;40.00;;;;;;5008405;28;20463;-74
2022/08/09 11:30:29;;;;;;;0.40;0.20;;;30.50;40.80;;;;;;5010984;28;20444;-74
2022/08/09 11:33:24;;;;;;;0.40;0.20;;;30.80;38.50;;;;;;5002639;28;20434;-73
2022/08/09 11:36:00;;;;;;;0.40;0.20;;;31.00;39.10;;;;;;5005968;28;20441;-74
2022/08/09 11:38:32;;;;;;;0.40;0.20;;;30.90;38.30;;;;;;5009770;28;20469;-74
2022/08/09 11:41:21;;;;;;;0.40;0.20;;;30.70;37.80;;;;;;5010524;28;20420;-74
2022/08/09 11:43:48;;;;;;;0.40;0.30;;;31.10;38.30;;;;;;4991072;28;20448;-74
2022/08/09 11:46:14;;;;;;;0.40;0.30;;;32.10;36.80;;;;;;5004366;28;20397;-74
2022/08/09 11:48:48;;;;;;;0.40;0.20;;;32.30;35.40;;;;;;5011244;28;20381;-74
2022/08/09 11:51:14;;;;;;;0.40;0.20;;;31.80;34.60;;;;;;5011222;28;20400;-75
2022/08/09 11:53:41;;;;;;;0.40;0.20;;;32.80;35.20;;;;;;5010771;28;20392;-74
2022/08/09 11:56:17;;;;;;;0.40;0.20;;;32.90;34.60;;;;;;5010932;28;20924;-74
2022/08/09 11:58:52;;;;;;;0.40;0.20;;;32.60;33.10;;;;;;5009008;28;20435;-74
2022/08/09 12:01:30;;;;;;;0.40;0.20;;;33.30;35.20;;;;;;5011017;28;20440;-74
2022/08/09 12:04:00;;;;;;;0.40;0.20;;;32.70;31.60;;;;;;5008721;28;20400;-74
2022/08/09 12:06:26;;;;;;;0.40;0.20;;;33.10;31.90;;;;;;5010749;28;20439;-75
2022/08/09 12:08:54;;;;;;;0.40;0.20;;;33.40;33.10;;;;;;5010822;28;20385;-74
2022/08/09 12:11:23;;;;;;;0.40;0.20;;;34.00;31.10;;;;;;5010979;28;20393;-74
2022/08/09 12:13:52;;;;;;;0.40;0.20;;;33.60;30.50;;;;;;5010230;28;20456;-75
2022/08/09 12:16:17;;;;;;;0.40;0.20;;;33.30;30.50;;;;;;5010877;28;20385;-77
2022/08/09 12:18:45;;;;;;;0.40;0.20;;;34.00;33.10;;;;;;5010936;28;20750;-78
2022/08/09 12:21:11;;;;;;;0.40;0.20;;;34.50;31.90;;;;;;5010727;28;20953;-78
2022/08/09 12:23:44;;;;;;;0.40;0.20;;;34.40;30.90;;;;;;5010382;28;20395;-77
2022/08/09 12:26:11;;;;;;;0.40;0.20;;;34.00;29.70;;;;;;5010713;28;20467;-77
2022/08/09 12:28:40;;;;;;;0.40;0.20;;;34.40;29.20;;;;;;5010802;28;20875;-77
2022/08/09 12:31:22;;;;;;;0.40;0.20;;;33.50;29.70;;;;;;5010801;28;20452;-78
2022/08/09 12:33:48;;;;;;;0.40;0.20;;;33.80;29.00;;;;;;4993125;28;20479;-79
2022/08/09 12:36:14;;;;;;;0.40;0.20;;;33.70;28.80;;;;;;5010739;28;20967;-77
2022/08/09 12:38:40;;;;;;;0.67;0.67;;;33.80;29.10;;;;;;5011317;28;20458;-77
2022/08/09 12:41:06;;;;;;;0.40;0.20;;;34.00;30.30;;;;;;4993454;28;20408;-77
2022/08/09 12:43:31;;;;;;;0.40;0.20;;;33.00;28.70;;;;;;4991664;28;21067;-78
2022/08/09 12:45:58;;;;;;;0.40;0.20;;;32.70;29.80;;;;;;5010328;28;20486;-77
2022/08/09 12:48:26;;;;;;;0.40;0.20;;;33.50;30.90;;;;;;5010478;28;20936;-77
2022/08/09 12:50:52;;;;;;;0.40;0.20;;;33.30;30.10;;;;;;5010541;28;20396;-76
2022/08/09 12:53:32;;;;;;;0.40;0.20;;;34.00;29.60;;;;;;4992287;28;20428;-78
2022/08/09 12:56:19;;;;;;;0.40;0.20;;;34.30;30.00;;;;;;4994722;28;20805;-75
2022/08/09 12:59:06;;;;;;;0.40;0.20;;;34.70;29.40;;;;;;5010188;28;20439;-76
2022/08/09 13:01:33;;;;;;;0.40;0.20;;;34.40;28.80;;;;;;4992668;28;20790;-76
2022/08/09 13:04:07;;;;;;;0.40;0.20;;;34.90;28.70;;;;;;5009772;28;20486;-76
2022/08/09 13:06:35;;;;;;;0.40;0.20;;;34.70;28.80;;;;;;5010103;28;20396;-76
2022/08/09 13:09:12;;;;;;;0.40;0.20;;;35.40;28.00;;;;;;5009944;28;20475;-76
2022/08/09 13:11:41;;;;;;;0.40;0.20;;;35.60;28.40;;;;;;5010091;28;20452;-73
2022/08/09 13:14:09;;;;;;;0.40;0.20;;;35.60;28.10;;;;;;4992133;28;20384;-75
2022/08/09 13:16:58;;;;;;;0.40;0.20;;;35.40;29.10;;;;;;5010212;28;20411;-75
2022/08/09 13:19:39;;;;;;;0.40;0.20;;;35.30;28.00;;;;;;5009932;28;20416;-75
2022/08/09 13:22:25;;;;;;;0.40;0.20;;;34.70;27.80;;;;;;4995441;28;20380;-76
2022/08/09 13:24:54;;;;;;;0.40;0.20;;;34.80;28.70;;;;;;4993644;28;20396;-73
2022/08/09 13:27:30;;;;;;;0.40;0.20;;;34.90;28.20;;;;;;5011858;28;20396;-72
2022/08/09 13:30:06;;;;;;;0.40;0.20;;;34.60;28.40;;;;;;5008724;28;20882;-74
2022/08/09 13:32:52;;;;;;;0.40;0.20;;;33.80;28.00;;;;;;5011122;28;20549;-75
2022/08/09 13:35:24;;;;;;;0.40;0.20;;;34.30;29.80;;;;;;5011916;28;20716;-75
2022/08/09 13:37:51;;;;;;;0.40;0.20;;;34.30;29.70;;;;;;5010766;28;20458;-73
2022/08/09 13:40:17;;;;;;;0.40;0.20;;;34.20;29.60;;;;;;5013022;28;20409;-73
2022/08/09 13:42:44;;;;;;;0.40;0.20;;;34.00;29.00;;;;;;5012617;28;20665;-74
2022/08/09 13:45:11;;;;;;;0.40;0.20;;;33.60;28.10;;;;;;5012811;28;20393;-73
2022/08/09 13:47:38;;;;;;;0.40;0.20;;;33.90;29.20;;;;;;4979882;28;20385;-73
2022/08/09 13:50:09;;;;;;;0.40;0.20;;;34.10;28.90;;;;;;5013354;28;20895;-75
2022/08/09 13:52:35;;;;;;;0.40;0.20;;;34.30;28.80;;;;;;5013056;28;20949;-74
2022/08/09 13:55:03;;;;;;;0.40;0.30;;;34.00;28.30;;;;;;5012466;28;20703;-76
2022/08/09 13:57:30;;;;;;;0.40;0.20;;;33.70;28.00;;;;;;5003379;28;20945;-74
2022/08/09 13:59:56;;;;;;;0.40;0.20;;;33.40;29.10;;;;;;5012271;28;20774;-75
2022/08/09 14:02:22;;;;;;;0.40;0.20;;;33.90;29.70;;;;;;5012573;28;20397;-75
2022/08/09 14:04:48;;;;;;;0.40;0.25;;;33.90;29.40;;;;;;5003547;28;20397;-75
2022/08/09 14:07:14;;;;;;;0.40;0.30;;;33.80;29.60;;;;;;5012339;28;20392;-75
2022/08/09 14:09:39;;;;;;;0.40;0.20;;;33.70;28.30;;;;;;5012990;28;20391;-75
2022/08/09 14:12:06;;;;;;;0.40;0.20;;;34.20;29.40;;;;;;5012641;28;20385;-75
2022/08/09 14:14:32;;;;;;;0.40;0.20;;;34.10;27.30;;;;;;5012673;28;20393;-77
2022/08/09 14:16:58;;;;;;;0.40;0.20;;;33.90;28.40;;;;;;5012512;28;20752;-75
2022/08/09 14:19:24;;;;;;;0.40;0.20;;;33.60;27.80;;;;;;5010929;28;20420;-75
2022/08/09 14:21:50;;;;;;;0.40;0.20;;;33.80;28.00;;;;;;5012330;28;20754;-76
2022/08/09 14:24:16;;;;;;;0.40;0.20;;;34.00;27.50;;;;;;5012067;28;20389;-76
2022/08/09 14:26:47;;;;;;;0.40;0.30;;;34.00;28.10;;;;;;4994709;28;20393;-75
2022/08/09 14:29:15;;;;;;;0.40;0.20;;;33.80;29.20;;;;;;5012433;28;20392;-75
2022/08/09 14:31:41;;;;;;;0.40;0.20;;;33.30;27.00;;;;;;5009730;28;20961;-75
2022/08/09 14:34:08;;;;;;;0.40;0.20;;;33.30;28.10;;;;;;5011895;28;20927;-75
2022/08/09 14:36:33;;;;;;;0.40;0.20;;;33.70;29.00;;;;;;5012260;28;20392;-75
2022/08/09 14:38:59;;;;;;;0.40;0.20;;;33.60;27.80;;;;;;5010609;28;20389;-75
2022/08/09 14:41:25;;;;;;;0.40;0.20;;;33.60;28.80;;;;;;5011810;28;20448;-76
2022/08/09 14:43:51;;;;;;;0.40;0.30;;;33.90;29.00;;;;;;5011738;28;20410;-75
2022/08/09 14:46:17;;;;;;;0.40;0.20;;;33.30;27.10;;;;;;5011847;28;20396;-76
2022/08/09 14:48:42;;;;;;;0.40;0.20;;;33.50;29.00;;;;;;5012004;28;20412;-76
2022/08/09 14:51:08;;;;;;;0.40;0.20;;;33.90;29.50;;;;;;4992469;28;20488;-75
2022/08/09 14:53:34;;;;;;;0.40;0.20;;;33.60;27.20;;;;;;5029525;23;20408;-76
2022/08/09 14:55:59;;;;;;;0.40;0.20;;;33.80;27.40;;;;;;5027506;28;20406;-76
2022/08/09 14:58:25;;;;;;;0.40;0.20;;;34.10;28.50;;;;;;5029104;28;20430;-76
2022/08/09 15:00:51;;;;;;;0.40;0.30;;;34.30;27.70;;;;;;5023551;28;20943;-76
2022/08/09 15:03:18;;;;;;;0.40;0.30;;;34.20;27.00;;;;;;5027325;28;20415;-76
2022/08/09 15:05:43;;;;;;;0.40;0.20;;;33.80;26.00;;;;;;5010093;28;20835;-77
2022/08/09 15:08:09;;;;;;;0.40;0.20;;;33.90;27.50;;;;;;5008482;28;20451;-76
2022/08/09 15:10:35;;;;;;;0.40;0.20;;;34.10;27.20;;;;;;5010820;28;20409;-76
2022/08/09 15:13:02;;;;;;;0.40;0.20;;;34.10;27.90;;;;;;5010180;28;20440;-76
2022/08/09 15:15:28;;;;;;;0.40;0.20;;;34.40;28.00;;;;;;5010575;28;20408;-76
2022/08/09 15:17:55;;;;;;;0.40;0.20;;;34.70;27.80;;;;;;5010633;28;20925;-76
2022/08/09 15:20:21;;;;;;;0.40;0.20;;;34.20;25.70;;;;;;5008483;28;20431;-76
2022/08/09 15:22:47;;;;;;;0.40;0.20;;;34.20;26.80;;;;;;5009567;28;20404;-76
2022/08/09 15:25:13;;;;;;;0.40;0.20;;;33.80;25.60;;;;;;5009613;28;20418;-76
2022/08/09 15:27:39;;;;;;;0.40;0.20;;;34.20;28.10;;;;;;5009522;28;20404;-76
2022/08/09 15:30:06;;;;;;;0.40;0.20;;;34.10;26.40;;;;;;5008781;28;20405;-76
2022/08/09 15:32:32;;;;;;;0.40;0.20;;;34.20;26.60;;;;;;5004054;28;20455;-76
2022/08/09 15:34:59;;;;;;;0.40;0.20;;;34.00;27.30;;;;;;5008256;28;20439;-76
2022/08/09 15:37:34;;;;;;;0.40;0.20;;;33.80;26.30;;;;;;5009176;28;20421;-76
2022/08/09 15:40:05;;;;;;;0.40;0.20;;;33.90;26.90;;;;;;5009976;28;20413;-76
2022/08/09 15:42:31;;;;;;;0.40;0.20;;;33.90;25.80;;;;;;4999215;28;20503;-76
2022/08/09 15:45:02;;;;;;;0.40;0.20;;;33.80;25.40;;;;;;5007491;28;20547;-76
2022/08/09 15:47:30;;;;;;;0.40;0.20;;;33.90;25.80;;;;;;5007990;28;20492;-76
2022/08/09 15:49:55;;;;;;;0.40;0.20;;;33.90;27.00;;;;;;5010114;28;20389;-75
2022/08/09 15:52:21;;;;;;;0.40;0.20;;;33.60;26.10;;;;;;5009970;28;20409;-76
2022/08/09 15:54:46;;;;;;;0.40;0.20;;;33.70;26.20;;;;;;5009031;28;20424;-76
2022/08/09 15:57:13;;;;;;;0.40;0.20;;;33.90;27.20;;;;;;5009923;28;20422;-77
2022/08/09 15:59:39;;;;;;;0.40;0.20;;;34.00;27.10;;;;;;5009738;28;20416;-75
2022/08/09 16:02:04;;;;;;;0.40;0.20;;;33.80;26.20;;;;;;5005806;28;20405;-76
2022/08/09 16:04:30;;;;;;;0.40;0.20;;;33.60;25.70;;;;;;5000936;28;20404;-76
2022/08/09 16:06:55;;;;;;;0.40;0.20;;;33.90;27.70;;;;;;5008642;28;20400;-76
2022/08/09 16:09:21;;;;;;;0.40;0.20;;;33.80;27.40;;;;;;5006920;28;20811;-76
2022/08/09 16:11:47;;;;;;;0.40;0.20;;;33.90;26.80;;;;;;5010488;28;20381;-76
2022/08/09 16:14:12;;;;;;;0.40;0.20;;;34.00;27.70;;;;;;5010265;28;20389;-76
2022/08/09 16:16:38;;;;;;;0.40;0.20;;;34.10;27.90;;;;;;5008351;28;20400;-76
2022/08/09 16:19:05;;;;;;;0.40;0.20;;;33.70;26.40;;;;;;5007705;28;20407;-75
2022/08/09 16:21:31;;;;;;;0.40;0.20;;;33.40;26.50;;;;;;5009117;28;20416;-76
2022/08/09 16:23:57;;;;;;;0.40;0.20;;;33.60;26.30;;;;;;5007326;28;20965;-76
2022/08/09 16:26:23;;;;;;;0.40;0.20;;;33.60;27.70;;;;;;5008739;28;20455;-76
2022/08/09 16:28:48;;;;;;;0.40;0.20;;;33.80;26.60;;;;;;5009275;28;20400;-76
2022/08/09 16:31:14;;;;;;;0.40;0.20;;;33.70;26.60;;;;;;5008467;28;20401;-76
2022/08/09 16:33:42;;;;;;;0.40;0.20;;;33.20;26.50;;;;;;5006617;28;20992;-76
2022/08/09 16:36:08;;;;;;;0.40;0.20;;;33.10;26.80;;;;;;5009390;28;20429;-76
2022/08/09 16:38:34;;;;;;;0.40;0.30;;;33.20;27.20;;;;;;5007581;28;20427;-76
2022/08/09 16:41:00;;;;;;;0.40;0.20;;;33.40;26.40;;;;;;5009321;28;20407;-76
2022/08/09 16:43:26;;;;;;;0.40;0.27;;;33.20;26.90;;;;;;5009781;28;20389;-76
2022/08/09 16:45:51;;;;;;;0.40;0.20;;;33.00;27.10;;;;;;5005724;28;20467;-76
2022/08/09 16:48:17;;;;;;;0.40;0.20;;;33.00;26.90;;;;;;5007683;28;20490;-75
2022/08/09 16:50:42;;;;;;;0.40;0.20;;;33.00;26.80;;;;;;5010148;28;20407;-76
2022/08/09 16:53:08;;;;;;;0.40;0.20;;;32.80;27.10;;;;;;5010842;28;20826;-76
2022/08/09 16:55:33;;;;;;;0.40;0.20;;;32.80;27.00;;;;;;5008060;28;20435;-76
2022/08/09 16:57:59;;;;;;;0.40;0.20;;;32.40;27.60;;;;;;5007738;28;20435;-76
2022/08/09 17:00:24;;;;;;;0.40;0.20;;;32.50;26.80;;;;;;5008077;28;20420;-76
2022/08/09 17:02:50;;;;;;;0.40;0.20;;;32.30;26.80;;;;;;5007488;28;20412;-76
2022/08/09 17:05:15;;;;;;;0.40;0.27;;;32.40;27.30;;;;;;5019163;28;20397;-76
2022/08/09 17:07:42;;;;;;;0.40;0.20;;;32.50;27.80;;;;;;5015672;28;20487;-76
2022/08/09 17:10:13;;;;;;;0.40;0.20;;;32.60;27.80;;;;;;5014794;28;20403;-75
2022/08/09 17:12:39;;;;;;;0.43;0.40;;;32.40;27.50;;;;;;5030672;28;20387;-75
2022/08/09 17:15:06;;;;;;;0.40;0.20;;;32.70;26.90;;;;;;5019251;28;20392;-75
2022/08/09 17:17:32;;;;;;;0.40;0.20;;;33.40;26.20;;;;;;5017142;28;20389;-75
2022/08/09 17:20:07;;;;;;;0.40;0.20;;;33.90;26.60;;;;;;5023505;28;20419;-75
2022/08/09 17:22:33;;;;;;;0.40;0.30;;;33.70;25.60;;;;;;5013338;28;20424;-76
2022/08/09 17:25:01;;;;;;;0.40;0.30;;;33.10;26.40;;;;;;5011134;28;20928;-75
2022/08/09 17:27:26;;;;;;;0.40;0.20;;;33.00;27.00;;;;;;5012529;28;20416;-76
2022/08/09 17:29:52;;;;;;;0.40;0.20;;;33.00;27.80;;;;;;5013653;28;20450;-75
2022/08/09 17:32:19;;;;;;;0.40;0.20;;;32.70;27.00;;;;;;5011496;28;20412;-75
2022/08/09 17:34:44;;;;;;;0.40;0.20;;;32.30;27.20;;;;;;5013062;28;20410;-75
2022/08/09 17:37:10;;;;;;;0.40;0.20;;;32.70;27.70;;;;;;5012381;28;20905;-76
2022/08/09 17:39:37;;;;;;;0.40;0.20;;;32.30;26.90;;;;;;5012649;28;20420;-76
2022/08/09 17:42:03;;;;;;;0.40;0.20;;;32.50;27.40;;;;;;5011286;28;20404;-76
2022/08/09 17:44:29;;;;;;;0.40;0.20;;;32.80;28.50;;;;;;5011285;28;20988;-76
2022/08/09 17:46:54;;;;;;;0.40;0.20;;;32.70;28.70;;;;;;5010697;28;20507;-76
2022/08/09 17:49:21;;;;;;;0.40;0.20;;;32.60;27.10;;;;;;5008981;28;21261;-75
2022/08/09 17:51:47;;;;;;;0.40;0.20;;;32.70;26.80;;;;;;5013344;28;20750;-76
2022/08/09 17:54:13;;;;;;;0.40;0.20;;;31.30;28.00;;;;;;5013134;28;20446;-76
2022/08/09 17:56:38;;;;;;;0.40;0.20;;;30.60;29.80;;;;;;5013357;28;20385;-76
2022/08/09 17:59:05;;;;;;;0.40;0.20;;;30.10;30.70;;;;;;5014385;28;20522;-75
2022/08/09 18:01:31;;;;;;;0.40;0.20;;;29.90;30.40;;;;;;5020309;28;20960;-76
2022/08/09 18:03:57;;;;;;;0.40;0.30;;;29.80;30.50;;;;;;5007051;28;20426;-76
2022/08/09 18:06:23;;;;;;;0.40;0.30;;;29.50;32.30;;;;;;5011766;28;20912;-75
2022/08/09 18:08:48;;;;;;;0.40;0.30;;;29.20;32.20;;;;;;5014102;28;20387;-75
2022/08/09 18:11:14;;;;;;;0.77;0.57;;;29.20;32.50;;;;;;5004378;28;20984;-75
2022/08/09 18:13:40;;;;;;;0.40;0.20;;;29.00;31.50;;;;;;5011110;28;20500;-76
2022/08/09 18:16:05;;;;;;;0.40;0.20;;;28.80;33.10;;;;;;5009326;28;20452;-75
2022/08/09 18:18:32;;;;;;;0.50;0.40;;;28.70;33.00;;;;;;5011925;28;20392;-76
2022/08/09 18:20:59;;;;;;;0.40;0.20;;;28.50;34.20;;;;;;5012893;28;20431;-75
2022/08/09 18:23:25;;;;;;;0.40;0.20;;;28.60;32.80;;;;;;5008312;28;20579;-75
2022/08/09 18:25:50;;;;;;;0.40;0.20;;;28.50;34.00;;;;;;5008751;28;20480;-76
2022/08/09 18:28:16;;;;;;;0.40;0.28;;;28.50;33.30;;;;;;5002982;28;20401;-75
2022/08/09 18:30:42;;;;;;;0.40;0.20;;;28.30;33.60;;;;;;5012597;28;20385;-76
2022/08/09 18:33:07;;;;;;;0.40;0.20;;;28.20;35.30;;;;;;5012346;28;20401;-75
2022/08/09 18:35:33;;;;;;;0.40;0.20;;;27.80;36.30;;;;;;5012805;28;20392;-76
2022/08/09 18:37:58;;;;;;;0.40;0.20;;;27.70;36.30;;;;;;5012771;28;20455;-77
2022/08/09 18:40:24;;;;;;;0.40;0.20;;;27.70;36.30;;;;;;5012704;28;20828;-75
2022/08/09 18:42:49;;;;;;;0.50;0.40;;;27.80;35.90;;;;;;5012229;28;20376;-74
2022/08/09 18:45:15;;;;;;;0.70;0.50;;;27.70;36.20;;;;;;5012346;28;20443;-74
2022/08/09 18:47:40;;;;;;;1.10;0.80;;;27.50;37.00;;;;;;5012498;28;20394;-74
2022/08/09 18:50:06;;;;;;;0.40;0.20;;;27.50;36.40;;;;;;5012439;28;20384;-74
2022/08/09 18:52:32;;;;;;;0.40;0.30;;;27.60;35.90;;;;;;5012177;28;20463;-75
2022/08/09 18:54:57;;;;;;;0.60;0.50;;;27.50;36.60;;;;;;5012023;28;20416;-74
2022/08/09 18:57:23;;;;;;;0.40;0.22;;;27.30;36.80;;;;;;5012308;28;20376;-75
2022/08/09 18:59:55;;;;;;;0.40;0.20;;;27.10;36.90;;;;;;5012173;28;20405;-74
2022/08/09 19:02:21;;;;;;;0.40;0.20;;;27.00;38.00;;;;;;5012167;28;20388;-75
2022/08/09 19:04:47;;;;;;;0.60;0.50;;;26.80;38.00;;;;;;5011782;28;20443;-75
2022/08/09 19:07:13;;;;;;;0.40;0.30;;;26.70;38.20;;;;;;5012101;28;20389;-75
2022/08/09 19:09:38;;;;;;;0.40;0.20;;;26.70;38.60;;;;;;5012102;28;20763;-76
2022/08/09 19:12:06;;;;;;;0.40;0.20;;;26.60;38.40;;;;;;5010799;28;20381;-74
2022/08/09 19:14:32;;;;;;;0.40;0.30;;;26.60;38.60;;;;;;5011488;28;20384;-75
2022/08/09 19:16:57;;;;;;;0.40;0.30;;;26.60;38.70;;;;;;5011955;28;20388;-75
2022/08/09 19:19:23;;;;;;;0.40;0.20;;;26.80;38.40;;;;;;5011788;28;20384;-75
2022/08/09 19:21:48;;;;;;;0.40;0.20;;;26.80;38.40;;;;;;5010592;28;20485;-74
2022/08/09 19:24:14;;;;;;;0.40;0.20;;;26.60;38.30;;;;;;5009364;28;20423;-75
2022/08/09 19:26:39;;;;;;;0.40;0.20;;;26.50;38.40;;;;;;5011427;28;20447;-75
2022/08/09 19:29:09;;;;;;;0.40;0.20;;;26.50;38.90;;;;;;5008940;28;20474;-75
2022/08/09 19:31:36;;;;;;;0.40;0.20;;;26.40;39.90;;;;;;5003970;28;20396;-75
2022/08/09 19:34:02;;;;;;;0.40;0.30;;;26.30;39.60;;;;;;5011124;28;20464;-75
2022/08/09 19:36:27;;;;;;;0.40;0.20;;;26.20;39.20;;;;;;5011477;28;20754;-75
2022/08/09 19:38:53;;;;;;;0.40;0.20;;;26.10;39.70;;;;;;5010197;28;20401;-75
2022/08/09 19:41:18;;;;;;;0.40;0.20;;;25.90;39.50;;;;;;5009152;28;20412;-75
2022/08/09 19:43:44;;;;;;;0.40;0.30;;;25.80;40.60;;;;;;5009211;28;20483;-75
2022/08/09 19:46:10;;;;;;;0.40;0.30;;;25.60;41.40;;;;;;5010691;28;20400;-75
2022/08/09 19:48:36;;;;;;;0.40;0.20;;;25.60;41.70;;;;;;5010398;28;20396;-76
2022/08/09 19:51:02;;;;;;;0.40;0.20;;;25.30;42.70;;;;;;5008645;28;20491;-75
2022/08/09 19:53:27;;;;;;;0.40;0.22;;;25.10;43.10;;;;;;5012808;28;20500;-76
2022/08/09 19:55:53;;;;;;;0.40;0.20;;;25.00;43.60;;;;;;5009466;28;20418;-75
2022/08/09 19:58:19;;;;;;;0.40;0.20;;;25.00;44.00;;;;;;5007691;28;20937;-75
2022/08/09 20:00:45;;;;;;;0.40;0.20;;;24.80;43.80;;;;;;5011992;28;20444;-75
2022/08/09 20:03:11;;;;;;;0.40;0.20;;;24.80;43.40;;;;;;5013200;28;20517;-75
2022/08/09 20:05:37;;;;;;;0.60;0.60;;;24.70;43.40;;;;;;5007307;28;20439;-75
2022/08/09 20:08:03;;;;;;;0.40;0.20;;;24.60;42.80;;;;;;5008353;28;20412;-74
2022/08/09 20:10:29;;;;;;;0.40;0.20;;;24.60;43.40;;;;;;5009398;28;20910;-74
2022/08/09 20:12:54;;;;;;;0.40;0.20;;;24.50;43.70;;;;;;5008697;28;20944;-74
2022/08/09 20:15:20;;;;;;;0.40;0.30;;;24.40;43.60;;;;;;5002909;28;20415;-75
2022/08/09 20:17:46;;;;;;;0.40;0.30;;;24.30;43.70;;;;;;5008520;28;20486;-74
2022/08/09 20:20:13;;;;;;;0.40;0.20;;;24.20;44.40;;;;;;5002200;28;20480;-74
2022/08/09 20:22:39;;;;;;;0.40;0.30;;;24.10;45.10;;;;;;5008808;28;20395;-74
2022/08/09 20:25:05;;;;;;;0.40;0.20;;;24.00;44.30;;;;;;5002072;28;20487;-74
2022/08/09 20:27:31;;;;;;;0.40;0.27;;;24.00;44.60;;;;;;5006719;28;20408;-74
2022/08/09 20:29:58;;;;;;;0.40;0.20;;;24.00;44.70;;;;;;5006279;28;20400;-75
2022/08/09 20:32:24;;;;;;;0.40;0.20;;;24.00;44.20;;;;;;5012242;28;20405;-75
2022/08/09 20:34:49;;;;;;;0.40;0.20;;;23.90;44.30;;;;;;5010805;28;20964;-75
2022/08/09 20:37:15;;;;;;;0.50;0.40;;;23.90;45.60;;;;;;5010388;28;20403;-74
2022/08/09 20:39:41;;;;;;;0.40;0.30;;;23.80;45.80;;;;;;5010011;28;20426;-74
2022/08/09 20:42:06;;;;;;;0.40;0.20;;;23.80;44.90;;;;;;5006617;28;20779;-74
2022/08/09 20:44:32;;;;;;;0.50;0.30;;;23.80;45.10;;;;;;5028461;28;20391;-75
2022/08/09 20:46:58;;;;;;;0.40;0.20;;;23.70;44.60;;;;;;5015113;28;20403;-74
2022/08/09 20:49:26;;;;;;;0.40;0.20;;;23.70;45.60;;;;;;5006315;28;20394;-75
2022/08/09 20:51:52;;;;;;;0.40;0.20;;;23.60;45.20;;;;;;5004506;28;20462;-74
2022/08/09 20:54:17;;;;;;;0.50;0.30;;;23.70;45.40;;;;;;5007930;28;20416;-74
2022/08/09 20:56:46;;;;;;;0.40;0.30;;;23.50;45.60;;;;;;5008429;28;20401;-74
2022/08/09 20:59:12;;;;;;;0.40;0.30;;;23.30;46.00;;;;;;5008272;28;20408;-74
2022/08/09 21:01:38;;;;;;;0.50;0.40;;;23.30;46.40;;;;;;5007740;28;20404;-77
2022/08/09 21:04:03;;;;;;;0.40;0.20;;;23.10;46.60;;;;;;5008257;28;20436;-75
2022/08/09 21:06:29;;;;;;;0.40;0.30;;;23.10;46.60;;;;;;5008777;28;20476;-74
2022/08/09 21:08:55;;;;;;;0.40;0.30;;;23.00;47.20;;;;;;5008958;28;20388;-74
2022/08/09 21:11:20;;;;;;;0.40;0.20;;;22.90;47.20;;;;;;5008649;28;20393;-74
2022/08/09 21:13:46;;;;;;;0.40;0.20;;;22.80;48.30;;;;;;5007334;28;20420;-74
2022/08/09 21:16:11;;;;;;;0.40;0.30;;;22.70;47.30;;;;;;5009654;28;20522;-74
2022/08/09 21:18:37;;;;;;;0.40;0.30;;;22.70;48.20;;;;;;5009207;28;20401;-74
2022/08/09 21:21:03;;;;;;;0.40;0.20;;;22.60;49.10;;;;;;5008224;28;20413;-74
2022/08/09 21:23:29;;;;;;;0.40;0.20;;;22.40;49.30;;;;;;5008286;28;20385;-74
2022/08/09 21:25:55;;;;;;;0.40;0.20;;;22.30;49.70;;;;;;5009758;28;20894;-74
2022/08/09 21:28:34;;;;;;;0.40;0.23;;;22.20;49.30;;;;;;5008632;28;20396;-74
2022/08/09 21:30:59;;;;;;;0.40;0.20;;;22.10;50.50;;;;;;5009587;28;20433;-74
2022/08/09 21:33:25;;;;;;;0.50;0.30;;;22.10;50.90;;;;;;5009573;28;20397;-75